RCH2190 ROAH-RPLB
Flight info
| Callsign | RCH2190 |
|---|---|
| Flight time | N/A |
| Altitude | 39000 |
| Route | GANJU Y576 GANAS Y62 MJC B462 LAO M646 SANRO B591 TATIL W16 CIA TR24 KIBOK KIBOK1G |
| Aircraft | B738/M-SDE2E3FGHIRWXY/LB1 |
Departure
| Time | 2026-05-05 05:16 |
|---|---|
| Airport | Naha International Airport (ROAH) |
Arrival
| Time | N/A |
|---|---|
| Airport | Subic Bay International Airport / Naval Air Station Cubi Point (RPLB) |
| Time | Latitude | Longitude | Altitude | Speed | Heading |
|---|---|---|---|---|---|
| 2026-05-05 05:02 | 26.19695 | 127.64871 | 10 ft | 0 kts | 358° |
| 2026-05-05 05:12 | 26.19727 | 127.64840 | 10 ft | 13 kts | 278° |
| 2026-05-05 05:12 | 26.19719 | 127.64805 | 10 ft | 13 kts | 236° |
| 2026-05-05 05:12 | 26.19595 | 127.64792 | 10 ft | 14 kts | 177° |
| 2026-05-05 05:13 | 26.19464 | 127.64799 | 10 ft | 14 kts | 177° |
| 2026-05-05 05:13 | 26.19368 | 127.64805 | 10 ft | 14 kts | 177° |
| 2026-05-05 05:13 | 26.19236 | 127.64808 | 10 ft | 25 kts | 177° |
| 2026-05-05 05:13 | 26.19058 | 127.64819 | 10 ft | 25 kts | 179° |
| 2026-05-05 05:14 | 26.18877 | 127.64828 | 10 ft | 26 kts | 177° |
| 2026-05-05 05:14 | 26.18695 | 127.64835 | 10 ft | 26 kts | 178° |
| 2026-05-05 05:14 | 26.18510 | 127.64844 | 10 ft | 26 kts | 177° |
| 2026-05-05 05:14 | 26.18390 | 127.64853 | 10 ft | 26 kts | 180° |
| 2026-05-05 05:15 | 26.18241 | 127.64726 | 10 ft | 24 kts | 270° |
| 2026-05-05 05:15 | 26.18298 | 127.64647 | 10 ft | 21 kts | 356° |
| 2026-05-05 05:15 | 26.18621 | 127.64635 | 10 ft | 71 kts | 358° |
| 2026-05-05 05:15 | 26.19365 | 127.64599 | 10 ft | 138 kts | 360° |
| 2026-05-05 05:16 | 26.20432 | 127.64542 | 347 ft | 163 kts | 360° |
| 2026-05-05 05:16 | 26.21563 | 127.64477 | 1134 ft | 163 kts | 1° |
| 2026-05-05 05:16 | 26.22647 | 127.64420 | 2082 ft | 158 kts | 2° |
| 2026-05-05 05:16 | 26.23347 | 127.64387 | 2780 ft | 155 kts | 2° |
| 2026-05-05 05:17 | 26.23693 | 127.64372 | 3107 ft | 154 kts | 2° |
| 2026-05-05 05:17 | 26.25159 | 127.64312 | 4140 ft | 171 kts | 359° |
| 2026-05-05 05:17 | 26.28061 | 127.62663 | 6092 ft | 210 kts | 324° |
| 2026-05-05 05:18 | 26.29359 | 127.61810 | 6919 ft | 228 kts | 326° |
| 2026-05-05 05:18 | 26.30768 | 127.60936 | 7807 ft | 242 kts | 326° |
| 2026-05-05 05:18 | 26.32247 | 127.60017 | 8707 ft | 255 kts | 326° |
| 2026-05-05 05:18 | 26.33803 | 127.59049 | 9601 ft | 267 kts | 324° |
| 2026-05-05 05:19 | 26.35262 | 127.57792 | 10476 ft | 270 kts | 303° |
| 2026-05-05 05:19 | 26.36023 | 127.55918 | 11320 ft | 271 kts | 275° |
| 2026-05-05 05:19 | 26.35917 | 127.53876 | 12126 ft | 277 kts | 253° |
| 2026-05-05 05:19 | 26.35157 | 127.51927 | 12986 ft | 286 kts | 240° |
| 2026-05-05 05:20 | 26.34109 | 127.50119 | 14043 ft | 288 kts | 237° |
| 2026-05-05 05:20 | 26.32974 | 127.48277 | 14990 ft | 293 kts | 236° |
| 2026-05-05 05:20 | 26.31825 | 127.46394 | 15883 ft | 300 kts | 237° |
| 2026-05-05 05:20 | 26.30664 | 127.44472 | 16799 ft | 304 kts | 237° |
| 2026-05-05 05:21 | 26.29483 | 127.42502 | 17638 ft | 310 kts | 237° |
| 2026-05-05 05:21 | 26.28317 | 127.40546 | 18463 ft | 314 kts | 238° |
| 2026-05-05 05:21 | 26.27112 | 127.38525 | 19360 ft | 316 kts | 238° |
| 2026-05-05 05:21 | 26.25884 | 127.36469 | 20176 ft | 320 kts | 237° |
| 2026-05-05 05:22 | 26.24660 | 127.34428 | 20934 ft | 323 kts | 237° |
| 2026-05-05 05:22 | 26.23410 | 127.32359 | 21734 ft | 325 kts | 237° |
| 2026-05-05 05:22 | 26.22156 | 127.30274 | 22465 ft | 328 kts | 238° |
| 2026-05-05 05:22 | 26.20895 | 127.28163 | 23193 ft | 331 kts | 238° |
| 2026-05-05 05:23 | 26.19620 | 127.26027 | 23845 ft | 336 kts | 238° |
| 2026-05-05 05:23 | 26.18317 | 127.23851 | 24608 ft | 337 kts | 237° |
| 2026-05-05 05:23 | 26.17014 | 127.21690 | 25356 ft | 338 kts | 239° |
| 2026-05-05 05:23 | 26.15719 | 127.19523 | 25945 ft | 343 kts | 238° |
| 2026-05-05 05:24 | 26.14389 | 127.17311 | 26574 ft | 347 kts | 238° |
| 2026-05-05 05:24 | 26.13032 | 127.15053 | 27212 ft | 350 kts | 238° |
| 2026-05-05 05:24 | 26.11692 | 127.12822 | 27840 ft | 353 kts | 238° |
| 2026-05-05 05:24 | 26.10323 | 127.10546 | 28453 ft | 355 kts | 239° |
| 2026-05-05 05:25 | 26.08946 | 127.08257 | 29015 ft | 359 kts | 239° |
| 2026-05-05 05:25 | 26.07552 | 127.05943 | 29605 ft | 362 kts | 239° |
| 2026-05-05 05:25 | 26.06166 | 127.03644 | 30248 ft | 363 kts | 239° |
| 2026-05-05 05:25 | 26.04767 | 127.01324 | 30849 ft | 364 kts | 239° |
| 2026-05-05 05:26 | 26.03338 | 126.98959 | 31441 ft | 366 kts | 239° |
| 2026-05-05 05:26 | 26.01926 | 126.96620 | 31931 ft | 370 kts | 239° |
| 2026-05-05 05:26 | 26.00503 | 126.94266 | 32476 ft | 371 kts | 239° |
| 2026-05-05 05:26 | 25.99048 | 126.91860 | 33009 ft | 373 kts | 239° |
| 2026-05-05 05:27 | 25.97595 | 126.89461 | 33551 ft | 375 kts | 239° |
| 2026-05-05 05:27 | 25.96150 | 126.87073 | 33993 ft | 377 kts | 239° |
| 2026-05-05 05:27 | 25.93185 | 126.82175 | 34828 ft | 384 kts | 239° |
| 2026-05-05 05:28 | 25.92186 | 126.80527 | 35109 ft | 386 kts | 239° |
| 2026-05-05 05:28 | 25.90149 | 126.77173 | 35603 ft | 391 kts | 239° |
| 2026-05-05 05:28 | 25.88628 | 126.74670 | 36024 ft | 393 kts | 239° |
| 2026-05-05 05:28 | 25.87095 | 126.72145 | 36415 ft | 396 kts | 240° |
| 2026-05-05 05:29 | 25.85603 | 126.69511 | 36874 ft | 396 kts | 242° |
| 2026-05-05 05:29 | 25.84230 | 126.66870 | 37465 ft | 393 kts | 243° |
| 2026-05-05 05:29 | 25.82911 | 126.64246 | 38008 ft | 391 kts | 244° |
| 2026-05-05 05:29 | 25.81603 | 126.61625 | 38499 ft | 390 kts | 244° |
| 2026-05-05 05:30 | 25.80273 | 126.58967 | 38969 ft | 391 kts | 244° |
| 2026-05-05 05:30 | 25.78925 | 126.56290 | 39055 ft | 397 kts | 244° |
| 2026-05-05 05:30 | 25.76172 | 126.50871 | 39051 ft | 403 kts | 244° |
| 2026-05-05 05:31 | 25.73424 | 126.45521 | 39050 ft | 399 kts | 243° |
| 2026-05-05 05:31 | 25.70693 | 126.40222 | 39069 ft | 402 kts | 243° |
| 2026-05-05 05:32 | 25.69312 | 126.37543 | 39627 ft | 399 kts | 243° |
| 2026-05-05 05:32 | 25.67949 | 126.34905 | 40049 ft | 398 kts | 243° |
| 2026-05-05 05:32 | 25.65205 | 126.29597 | 40049 ft | 392 kts | 243° |
| 2026-05-05 05:33 | 25.62479 | 126.24335 | 40053 ft | 393 kts | 243° |
| 2026-05-05 05:33 | 25.59773 | 126.19103 | 40053 ft | 393 kts | 243° |
| 2026-05-05 05:34 | 25.57048 | 126.13841 | 40057 ft | 394 kts | 243° |
| 2026-05-05 05:34 | 25.54332 | 126.08603 | 40053 ft | 392 kts | 243° |
| 2026-05-05 05:35 | 25.51626 | 126.03394 | 40053 ft | 392 kts | 243° |
| 2026-05-05 05:35 | 25.48880 | 125.98114 | 40046 ft | 395 kts | 243° |
| 2026-05-05 05:36 | 25.46152 | 125.92876 | 40047 ft | 393 kts | 243° |
| 2026-05-05 05:36 | 25.43095 | 125.87859 | 40049 ft | 397 kts | 233° |
| 2026-05-05 05:37 | 25.39048 | 125.83603 | 40048 ft | 406 kts | 225° |
| 2026-05-05 05:37 | 25.34636 | 125.79697 | 40033 ft | 405 kts | 224° |
| 2026-05-05 05:38 | 25.30210 | 125.75835 | 40034 ft | 408 kts | 224° |
| 2026-05-05 05:38 | 25.25791 | 125.71944 | 40037 ft | 405 kts | 224° |
| 2026-05-05 05:39 | 25.21370 | 125.68024 | 40033 ft | 406 kts | 224° |
| 2026-05-05 05:39 | 25.16942 | 125.64092 | 40033 ft | 408 kts | 224° |
| 2026-05-05 05:40 | 25.12525 | 125.60171 | 40029 ft | 406 kts | 224° |
| 2026-05-05 05:40 | 25.08112 | 125.56253 | 40020 ft | 407 kts | 224° |
| 2026-05-05 05:41 | 25.04457 | 125.53011 | 40014 ft | 407 kts | 224° |
| 2026-05-05 05:41 | 24.99298 | 125.48434 | 40026 ft | 409 kts | 225° |
| 2026-05-05 05:42 | 24.94867 | 125.44510 | 40022 ft | 409 kts | 224° |
| 2026-05-05 05:42 | 24.90432 | 125.40590 | 40020 ft | 408 kts | 224° |
| 2026-05-05 05:43 | 24.85965 | 125.36640 | 40019 ft | 409 kts | 224° |
| 2026-05-05 05:43 | 24.81533 | 125.32725 | 40017 ft | 410 kts | 224° |
| 2026-05-05 05:44 | 24.77078 | 125.28809 | 40021 ft | 409 kts | 223° |
| 2026-05-05 05:44 | 24.72447 | 125.25146 | 40017 ft | 412 kts | 220° |
| 2026-05-05 05:45 | 24.67686 | 125.21602 | 40017 ft | 413 kts | 219° |
| 2026-05-05 05:45 | 24.62929 | 125.18050 | 40013 ft | 413 kts | 220° |
| 2026-05-05 05:46 | 24.58154 | 125.14455 | 40003 ft | 416 kts | 220° |
| 2026-05-05 05:46 | 24.53404 | 125.10866 | 40001 ft | 415 kts | 220° |
| 2026-05-05 05:47 | 24.48672 | 125.07281 | 39992 ft | 415 kts | 220° |
| 2026-05-05 05:47 | 24.43923 | 125.03686 | 39988 ft | 414 kts | 220° |
| 2026-05-05 05:48 | 24.39162 | 125.00082 | 39990 ft | 415 kts | 220° |
| 2026-05-05 05:48 | 24.34391 | 124.96473 | 39997 ft | 416 kts | 220° |
| 2026-05-05 05:49 | 24.29641 | 124.92886 | 39996 ft | 415 kts | 219° |
| 2026-05-05 05:49 | 24.24873 | 124.89286 | 39993 ft | 417 kts | 219° |
| 2026-05-05 05:50 | 24.20077 | 124.85671 | 39993 ft | 417 kts | 219° |
| 2026-05-05 05:50 | 24.15285 | 124.82062 | 39993 ft | 418 kts | 219° |
| 2026-05-05 05:51 | 24.10477 | 124.78445 | 39987 ft | 418 kts | 219° |
| 2026-05-05 05:51 | 24.05665 | 124.74827 | 39990 ft | 417 kts | 219° |
| 2026-05-05 05:52 | 24.00907 | 124.71253 | 39991 ft | 417 kts | 219° |
| 2026-05-05 05:52 | 23.96089 | 124.67635 | 39988 ft | 418 kts | 219° |
| 2026-05-05 05:53 | 23.91321 | 124.64060 | 39987 ft | 419 kts | 219° |
| 2026-05-05 05:53 | 23.86490 | 124.60441 | 39986 ft | 419 kts | 219° |
| 2026-05-05 05:54 | 23.81696 | 124.56852 | 39985 ft | 419 kts | 219° |
| 2026-05-05 05:54 | 23.76880 | 124.53252 | 39984 ft | 419 kts | 220° |
| 2026-05-05 05:55 | 23.72084 | 124.49668 | 39985 ft | 418 kts | 219° |
| 2026-05-05 05:55 | 23.67291 | 124.46091 | 39980 ft | 418 kts | 219° |
| 2026-05-05 05:56 | 23.62480 | 124.42503 | 39978 ft | 419 kts | 219° |
| 2026-05-05 05:56 | 23.58463 | 124.39510 | 39979 ft | 419 kts | 219° |
| 2026-05-05 05:57 | 23.52875 | 124.35349 | 39977 ft | 420 kts | 219° |
| 2026-05-05 05:57 | 23.48048 | 124.31761 | 39976 ft | 421 kts | 219° |
| 2026-05-05 05:58 | 23.43188 | 124.28151 | 39972 ft | 420 kts | 219° |
| 2026-05-05 05:58 | 23.38365 | 124.24572 | 39969 ft | 420 kts | 219° |
| 2026-05-05 05:59 | 23.33528 | 124.20984 | 39968 ft | 421 kts | 219° |
| 2026-05-05 05:59 | 23.28684 | 124.17396 | 39967 ft | 422 kts | 219° |
| 2026-05-05 06:00 | 23.23909 | 124.13863 | 39967 ft | 422 kts | 219° |
| 2026-05-05 06:00 | 23.19074 | 124.10290 | 39968 ft | 422 kts | 219° |
| 2026-05-05 06:01 | 23.14190 | 124.06686 | 39964 ft | 423 kts | 219° |
| 2026-05-05 06:01 | 23.09321 | 124.03095 | 39967 ft | 423 kts | 219° |
| 2026-05-05 06:02 | 23.04451 | 123.99506 | 39966 ft | 422 kts | 219° |
| 2026-05-05 06:02 | 22.99613 | 123.95946 | 39966 ft | 422 kts | 219° |
| 2026-05-05 06:03 | 22.94732 | 123.92418 | 39969 ft | 423 kts | 218° |
| 2026-05-05 06:03 | 22.89823 | 123.88908 | 39966 ft | 423 kts | 218° |
| 2026-05-05 06:04 | 22.84877 | 123.85375 | 39966 ft | 423 kts | 218° |
| 2026-05-05 06:04 | 22.79947 | 123.81850 | 39966 ft | 425 kts | 218° |
| 2026-05-05 06:05 | 22.75048 | 123.78348 | 39966 ft | 423 kts | 218° |